Time;durP1;ratioP1;P1;durP2;ratioP2;P2;SDS_P1;SDS_P2;PMS_P1;PMS_P2;Temp;Humidity;BMP_temperature;BMP_pressure;BME280_temperature;BME280_humidity;BME280_pressure;Samples;Min_cycle;Max_cycle;Signal;HPM_P1;HPM_P2
2023/10/17 00:00:57;;;;;;;3.95;2.13;;;;;;;10.92;53.81;100386.53;6211269;23;20015;-83
2023/10/17 00:03:24;;;;;;;3.53;2.10;;;;;;;10.69;54.19;100352.34;6212583;23;20008;-85
2023/10/17 00:05:51;;;;;;;3.03;1.92;;;;;;;10.36;54.53;100332.25;6212361;23;20506;-84
2023/10/17 00:08:17;;;;;;;3.53;1.65;;;;;;;10.19;54.69;100330.53;6212135;23;20001;-82
2023/10/17 00:10:45;;;;;;;10.07;2.33;;;;;;;10.11;55.14;100324.41;6212253;23;20024;-82
2023/10/17 00:15:55;;;;;;;8.27;3.22;;;;;;;10.37;55.32;100377.09;6212647;23;20011;-82
2023/10/17 00:18:25;;;;;;;;;;;;;;;10.52;55.62;100385.84;6213062;23;20000;-82
2023/10/17 00:20:53;;;;;;;3.17;2.28;;;;;;;9.87;55.42;100306.91;6212870;23;19958;-82
2023/10/17 00:23:22;;;;;;;4.90;2.20;;;;;;;10.46;55.71;100388.50;6212112;23;20000;-81
2023/10/17 00:25:49;;;;;;;3.85;3.13;;;;;;;9.58;55.77;100260.41;6211883;23;20008;-82
2023/10/17 00:28:20;;;;;;;3.72;2.05;;;;;;;9.56;55.39;100291.16;6211484;23;20444;-83
2023/10/17 00:30:49;;;;;;;3.63;1.70;;;;;;;9.63;54.95;100336.81;6212209;23;20015;-83
2023/10/17 00:33:20;;;;;;;10.02;3.42;;;;;;;9.57;54.57;100321.00;6212089;23;20047;-84
2023/10/17 00:35:49;;;;;;;5.13;2.40;;;;;;;9.22;54.96;100288.56;6214064;23;20012;-84
2023/10/17 00:38:15;;;;;;;15.38;2.85;;;;;;;9.63;54.81;100348.19;6214032;23;20082;-84
2023/10/17 00:40:51;;;;;;;12.73;3.30;;;;;;;9.24;55.12;100301.72;6213613;23;20035;-84
2023/10/17 00:43:17;;;;;;;;;;;;;;;9.71;55.18;100382.44;6214992;23;20004;-83
2023/10/17 00:45:47;;;;;;;3.00;2.22;;;;;;;9.25;54.44;100322.78;6213916;23;19907;-83
2023/10/17 00:48:28;;;;;;;2.72;2.20;;;;;;;9.06;54.89;100334.16;6214115;23;20032;-82
2023/10/17 00:51:06;;;;;;;2.55;2.35;;;;;;;8.90;55.26;100331.50;6213743;23;20079;-82
2023/10/17 00:53:39;;;;;;;5.07;2.72;;;;;;;8.78;55.47;100318.31;6214130;23;20135;-82
2023/10/17 00:56:06;;;;;;;6.18;3.00;;;;;;;9.05;54.66;100313.97;6214714;23;20020;-82
2023/10/17 00:58:33;;;;;;;11.77;2.63;;;;;;;9.25;54.75;100366.63;6214418;23;20070;-82
2023/10/17 01:03:34;;;;;;;4.25;2.58;;;;;;;8.83;54.83;100334.97;6214596;23;20027;-84
2023/10/17 01:08:58;;;;;;;3.60;2.28;;;;;;;8.48;54.99;100298.06;6121705;23;19909;-83
2023/10/17 01:11:30;;;;;;;7.43;2.60;;;;;;;8.70;53.85;100338.47;6122131;23;20084;-84
2023/10/17 01:13:57;;;;;;;5.45;3.03;;;;;;;8.27;54.85;100262.91;6122016;23;20072;-83
2023/10/17 01:16:24;;;;;;;3.88;2.85;;;;;;;8.39;55.06;100289.25;6122200;23;20045;-83
2023/10/17 01:18:50;;;;;;;10.38;2.92;;;;;;;8.87;54.76;100359.56;6121900;23;20005;-83
2023/10/17 01:21:21;;;;;;;5.22;3.47;;;;;;;9.12;53.96;100376.28;6122002;23;20017;-83
2023/10/17 01:23:48;;;;;;;5.40;2.33;;;;;;;8.98;53.75;100378.00;6121455;23;20017;-83
2023/10/17 01:26:23;;;;;;;5.60;2.95;;;;;;;8.74;54.67;100353.38;6122125;23;20105;-81
2023/10/17 01:28:52;;;;;;;6.43;2.05;;;;;;;8.70;54.85;100386.69;6121886;23;20010;-82
2023/10/17 01:31:25;;;;;;;12.40;3.00;;;;;;;8.59;54.64;100351.59;6122416;23;20020;-82
2023/10/17 01:34:08;;;;;;;2.72;2.38;;;;;;;8.57;54.53;100356.84;6096868;23;20010;-82
2023/10/17 01:36:35;;;;;;;2.97;2.58;;;;;;;8.70;54.82;100363.00;6122164;23;20140;-82
2023/10/17 01:39:05;;;;;;;5.47;1.98;;;;;;;8.80;54.55;100368.28;6121735;23;20009;-82
2023/10/17 01:41:32;;;;;;;6.07;2.42;;;;;;;8.84;54.93;100352.53;6122137;23;20006;-82
2023/10/17 01:43:57;;;;;;;7.55;2.92;;;;;;;8.89;53.91;100377.09;6144595;23;20411;-81
2023/10/17 01:46:23;;;;;;;;;;;;;;;8.68;53.54;100377.91;6214659;23;20036;-81
2023/10/17 01:48:51;;;;;;;3.20;2.38;;;;;;;8.62;53.80;100370.00;6213832;23;19969;-81
2023/10/17 01:51:16;;;;;;;10.00;3.72;;;;;;;8.67;54.54;100384.03;6213855;23;20395;-80
2023/10/17 01:53:43;;;;;;;;;;;;;;;8.57;55.42;100376.97;6214112;23;20009;-80
2023/10/17 01:56:15;;;;;;;4.03;2.40;;;;;;;8.58;54.86;100365.59;6213618;23;19914;-81
2023/10/17 01:58:50;;;;;;;4.40;2.88;;;;;;;8.51;55.33;100379.56;6213929;23;20051;-81
2023/10/17 02:01:26;;;;;;;5.13;2.40;;;;;;;8.57;55.78;100379.59;6214217;23;20071;-83
2023/10/17 02:03:52;;;;;;;6.07;3.35;;;;;;;8.69;55.60;100382.28;6201179;23;20427;-82
2023/10/17 02:06:19;;;;;;;3.58;2.58;;;;;;;8.43;56.44;100355.84;6213401;23;20088;-82
2023/10/17 02:08:46;;;;;;;5.72;2.58;;;;;;;8.52;57.46;100390.09;6213633;23;20091;-81
2023/10/17 02:11:24;;;;;;;7.78;4.47;;;;;;;8.47;57.49;100381.31;6212511;23;20004;-82
2023/10/17 02:13:51;;;;;;;12.40;2.90;;;;;;;8.34;56.86;100390.88;6213905;23;20012;-82
2023/10/17 02:16:17;;;;;;;4.47;2.63;;;;;;;8.41;56.80;100379.50;6212968;23;20019;-81
2023/10/17 02:18:44;;;;;;;;;;;;;;;8.32;56.76;100397.84;6214443;23;20416;-80
2023/10/17 02:21:12;;;;;;;5.15;2.53;;;;;;;8.16;57.21;100367.13;6213469;23;19910;-80
2023/10/17 02:23:43;;;;;;;10.57;3.78;;;;;;;8.44;56.59;100394.47;6213344;23;20455;-81
2023/10/17 02:26:10;;;;;;;8.75;3.00;;;;;;;8.05;56.53;100320.63;6212025;23;20004;-81
2023/10/17 02:28:46;;;;;;;4.80;3.05;;;;;;;8.26;57.36;100363.66;6213434;23;20369;-82
2023/10/17 02:31:12;;;;;;;;;;;;;;;8.32;57.00;100397.84;6213902;23;20001;-81
2023/10/17 02:33:41;;;;;;;18.98;3.45;;;;;;;8.27;56.44;100368.06;6213768;23;19908;-82
2023/10/17 02:36:13;;;;;;;3.92;2.72;;;;;;;8.25;56.56;100369.81;6213305;23;20018;-83
2023/10/17 02:38:46;;;;;;;5.60;2.65;;;;;;;8.26;57.14;100358.41;6213509;23;20000;-82
2023/10/17 02:41:18;;;;;;;3.65;1.92;;;;;;;7.98;57.52;100358.25;6213121;23;20009;-83
2023/10/17 02:43:48;;;;;;;23.63;3.88;;;;;;;8.42;58.15;100423.34;6213438;23;19997;-83
2023/10/17 02:46:14;;;;;;;8.30;2.88;;;;;;;8.62;57.36;100412.09;6212951;23;20008;-83
2023/10/17 02:48:45;;;;;;;3.35;2.35;;;;;;;8.33;57.80;100378.59;6213044;23;20428;-83
2023/10/17 02:51:30;;;;;;;4.85;3.15;;;;;;;8.53;57.81;100409.41;6212917;23;20508;-84
2023/10/17 02:53:56;;;;;;;11.02;3.00;;;;;;;8.25;58.37;100381.19;6201863;23;20070;-83
2023/10/17 02:56:22;;;;;;;;;;;;;;;8.33;58.62;100407.50;6213371;23;20005;-83
2023/10/17 02:58:59;;;;;;;5.60;3.40;;;;;;;8.37;58.27;100418.91;6213334;23;19915;-83
2023/10/17 03:01:27;;;;;;;6.40;2.70;;;;;;;8.35;58.30;100415.41;6213065;23;20064;-83
2023/10/17 03:03:54;;;;;;;6.40;2.50;;;;;;;8.48;56.54;100406.75;6213364;23;20494;-83
2023/10/17 03:06:19;;;;;;;6.85;3.55;;;;;;;8.16;56.85;100383.75;6213099;23;20005;-82
2023/10/17 03:08:51;;;;;;;;;;;;;;;8.24;57.42;100412.72;6213030;23;20011;-82
2023/10/17 03:11:47;;;;;;;3.05;2.10;;;;;;;8.21;57.13;100402.19;6212934;23;20011;-82
2023/10/17 03:14:19;;;;;;;11.02;2.90;;;;;;;8.11;57.07;100372.34;6212652;23;20001;-82
2023/10/17 03:16:54;;;;;;;10.18;3.08;;;;;;;8.15;56.75;100376.72;6212916;23;20435;-83
2023/10/17 03:19:28;;;;;;;7.63;2.83;;;;;;;8.10;56.18;100388.97;6213126;23;20087;-83
2023/10/17 03:21:54;;;;;;;4.07;3.10;;;;;;;7.98;56.34;100389.78;6213234;23;20000;-82
2023/10/17 03:24:38;;;;;;;4.20;2.35;;;;;;;7.85;56.17;100375.69;6212236;23;20000;-83
2023/10/17 03:27:08;;;;;;;4.20;2.85;;;;;;;7.68;56.27;100353.69;6212940;23;20020;-82
2023/10/17 03:29:41;;;;;;;3.05;2.63;;;;;;;7.44;56.43;100355.22;6213003;23;20428;-81
2023/10/17 03:32:13;;;;;;;4.43;3.53;;;;;;;7.62;55.98;100383.38;6213032;23;20007;-81
2023/10/17 03:34:44;;;;;;;5.90;2.00;;;;;;;7.40;56.57;100378.81;6212463;23;20333;-82
2023/10/17 03:39:52;;;;;;;9.40;3.50;;;;;;;7.31;57.31;100385.75;6212272;23;20028;-81
2023/10/17 03:42:43;;;;;;;6.38;3.65;;;;;;;7.31;57.24;100363.88;6212486;23;20009;-84
2023/10/17 03:45:18;;;;;;;2.00;1.80;;;;;;;7.35;57.56;100387.53;6204067;23;20019;-81
2023/10/17 03:47:52;;;;;;;5.72;3.45;;;;;;;7.22;57.77;100348.91;6210424;23;20036;-81
2023/10/17 03:53:29;;;;;;;3.03;2.65;;;;;;;7.28;57.90;100369.09;6119340;23;20106;-80
2023/10/17 03:55:55;;;;;;;3.05;2.30;;;;;;;7.26;58.23;100371.72;6120070;23;20010;-82
2023/10/17 04:00:51;;;;;;;6.50;2.83;;;;;;;7.37;57.75;100366.56;6120684;23;20084;-83
2023/10/17 04:08:37;;;;;;;10.25;3.30;;;;;;;7.38;57.50;100349.94;6119533;23;20065;-81
2023/10/17 04:11:17;;;;;;;17.98;3.45;;;;;;;7.30;57.97;100362.97;6119773;23;20014;-82
2023/10/17 04:13:50;;;;;;;5.35;2.90;;;;;;;7.40;58.01;100363.97;6094970;23;20020;-81
2023/10/17 04:16:39;;;;;;;4.68;2.65;;;;;;;7.60;57.80;100385.13;6119642;23;20010;-82
2023/10/17 04:19:07;;;;;;;4.45;2.72;;;;;;;7.62;58.00;100379.91;6119751;23;20016;-80
2023/10/17 04:21:45;;;;;;;3.63;2.00;;;;;;;7.37;58.15;100355.16;6119131;23;20511;-80
2023/10/17 04:24:10;;;;;;;4.20;2.72;;;;;;;7.51;57.27;100372.78;6167315;23;20059;-81
2023/10/17 04:26:35;;;;;;;;;;;;;;;7.33;57.74;100388.38;6211404;23;20013;-83
2023/10/17 04:29:11;;;;;;;;;;;;;;;7.26;58.34;100392.72;6211897;23;19915;-81
2023/10/17 04:31:43;;;;;;;5.50;2.50;;;;;;;7.23;58.11;100363.81;6210982;23;19907;-81
2023/10/17 04:34:14;;;;;;;2.97;2.30;;;;;;;7.38;58.10;100391.06;6212237;23;20001;-80
2023/10/17 04:36:41;;;;;;;3.70;2.90;;;;;;;7.36;58.23;100393.66;6211956;23;20004;-80
2023/10/17 04:39:35;;;;;;;3.05;2.72;;;;;;;7.50;58.07;100409.53;6211793;23;20011;-81
2023/10/17 04:44:31;;;;;;;;;;;;;;;7.39;58.52;100419.94;6212555;23;20040;-82
2023/10/17 04:49:35;;;;;;;11.32;3.40;;;;;;;7.22;57.99;100398.78;6211756;23;20177;-81
2023/10/17 04:52:18;;;;;;;7.97;2.88;;;;;;;7.13;58.29;100390.81;6211486;23;20416;-80
2023/10/17 04:54:44;;;;;;;6.75;3.30;;;;;;;7.16;58.77;100412.72;6211576;23;20494;-79
2023/10/17 04:57:16;;;;;;;6.68;2.85;;;;;;;7.26;59.01;100397.06;6212097;23;20125;-79
2023/10/17 04:59:51;;;;;;;8.48;2.95;;;;;;;7.10;57.89;100367.16;6211176;23;20004;-80
2023/10/17 05:07:53;;;;;;;4.07;3.17;;;;;;;7.22;58.67;100411.91;6212018;23;20011;-81
2023/10/17 06:18:49;;;;;;;13.13;4.53;;;;;;;12.59;47.02;100421.25;6211606;23;20067;-81
2023/10/17 06:32:03;;;;;;;;;;;;;;;13.67;44.37;100460.47;6208983;23;20000;-81
2023/10/17 06:34:31;;;;;;;4.90;3.03;;;;;;;13.61;44.32;100445.50;6210652;23;19983;-81
2023/10/17 06:37:01;;;;;;;7.05;3.33;;;;;;;13.34;42.50;100428.25;6211366;23;20399;-81
2023/10/17 06:39:36;;;;;;;9.68;3.50;;;;;;;13.22;43.83;100433.69;6211960;23;20005;-81
2023/10/17 06:42:28;;;;;;;3.75;2.33;;;;;;;13.02;44.05;100428.66;6210849;23;20015;-81
2023/10/17 06:44:54;;;;;;;5.80;2.25;;;;;;;12.99;42.97;100426.06;6211819;23;20004;-81
2023/10/17 06:48:08;;;;;;;;;;;;;;;13.36;42.77;100457.38;6211988;23;20005;-81
2023/10/17 06:55:21;;;;;;;4.88;3.40;;;;;;;13.10;43.89;100420.63;6213392;23;20001;-81
2023/10/17 06:57:50;;;;;;;3.85;3.30;;;;;;;13.30;44.39;100439.78;6214144;23;20005;-82
2023/10/17 07:00:24;;;;;;;4.88;2.78;;;;;;;13.50;43.01;100423.63;6214868;23;20074;-82
2023/10/17 07:02:50;;;;;;;5.22;2.60;;;;;;;13.78;43.58;100452.34;6215553;23;20058;-84
2023/10/17 07:05:21;;;;;;;;;;;;;;;14.05;42.91;100456.28;6216634;23;20000;-84
2023/10/17 07:07:52;;;;;;;4.00;2.63;;;;;;;13.73;42.97;100432.97;6211782;23;19912;-82
2023/10/17 07:13:35;;;;;;;4.05;2.17;;;;;;;14.69;41.90;100448.09;6210653;23;20004;-83
2023/10/17 07:16:16;;;;;;;7.30;2.83;;;;;;;14.63;42.33;100449.06;6201957;23;20095;-84
2023/10/17 07:18:46;;;;;;;9.05;3.03;;;;;;;14.94;42.12;100450.25;6211570;23;20020;-83
2023/10/17 07:21:16;;;;;;;5.45;3.13;;;;;;;14.94;42.63;100429.84;6212062;23;20036;-87
2023/10/17 07:23:46;;;;;;;10.85;5.85;;;;;;;15.29;41.85;100446.81;6211111;23;20009;-82
2023/10/17 07:28:54;;;;;;;7.07;4.30;;;;;;;15.47;42.99;100442.84;6210929;23;20005;-85
2023/10/17 07:31:22;;;;;;;;;;;;;;;15.63;42.48;100440.72;6212016;23;20131;-82
2023/10/17 07:36:34;;;;;;;8.48;3.33;;;;;;;15.06;42.73;100391.53;6211773;23;20488;-88
2023/10/17 07:39:05;;;;;;;8.88;2.70;;;;;;;15.17;43.09;100424.03;6210472;23;20001;-85
2023/10/17 07:41:37;;;;;;;17.25;4.53;;;;;;;14.86;43.66;100414.09;6211516;23;20008;-85
2023/10/17 07:44:25;;;;;;;27.45;4.88;;;;;;;15.17;43.80;100424.03;6210815;23;20440;-86
2023/10/17 07:49:29;;;;;;;7.53;2.63;;;;;;;14.75;44.87;100415.19;6209616;23;20011;-85
2023/10/17 07:51:58;;;;;;;3.63;2.15;;;;;;;15.42;43.68;100410.19;6210979;23;20009;-88
2023/10/17 07:54:28;;;;;;;5.88;2.90;;;;;;;15.16;43.12;100385.06;6211578;23;20083;-91
2023/10/17 07:56:55;;;;;;;8.43;4.63;;;;;;;15.29;43.44;100385.69;6199703;23;20143;-84
2023/10/17 07:59:30;;;;;;;5.97;2.35;;;;;;;15.80;42.41;100399.56;6209260;23;20012;-82
2023/10/17 08:01:59;;;;;;;2.85;1.77;;;;;;;15.55;43.16;100416.06;6209639;23;20008;-85
2023/10/17 08:04:30;;;;;;;4.13;2.30;;;;;;;15.27;43.88;100390.16;6209391;23;20012;-85
2023/10/17 08:06:56;;;;;;;5.28;2.40;;;;;;;15.13;43.78;100355.91;6210878;23;20035;-83
2023/10/17 08:11:54;;;;;;;10.75;2.95;;;;;;;15.33;43.45;100360.75;6211303;23;20005;-87
2023/10/17 08:14:31;;;;;;;5.53;2.30;;;;;;;15.31;44.16;100396.28;6211884;23;20004;-87
2023/10/17 08:16:58;;;;;;;4.95;3.22;;;;;;;15.50;42.99;100386.06;6211577;23;20004;-82
2023/10/17 08:19:29;;;;;;;7.00;2.58;;;;;;;15.44;43.95;100373.78;6211758;23;20087;-86
2023/10/17 08:27:13;;;;;;;3.25;1.83;;;;;;;15.84;43.21;100383.47;6211827;23;20005;-85
2023/10/17 08:29:44;;;;;;;5.68;1.98;;;;;;;15.58;43.06;100378.78;6212714;23;20100;-85
2023/10/17 08:34:56;;;;;;;8.10;2.35;;;;;;;15.81;43.47;100369.38;6212331;23;20035;-90
2023/10/17 08:37:30;;;;;;;5.43;2.05;;;;;;;15.62;43.63;100348.53;6211592;23;20015;-87
2023/10/17 08:39:59;;;;;;;3.67;2.08;;;;;;;15.44;43.45;100333.91;6185592;23;20005;-84
2023/10/17 08:42:31;;;;;;;5.65;2.10;;;;;;;15.50;43.65;100336.44;6211305;23;20470;-86
2023/10/17 08:44:59;;;;;;;4.75;2.20;;;;;;;15.72;43.56;100366.03;6211809;23;20007;-84
2023/10/17 08:47:30;;;;;;;7.40;2.38;;;;;;;15.76;43.24;100332.22;6210751;23;20009;-83
2023/10/17 08:49:57;;;;;;;9.60;2.47;;;;;;;15.81;43.85;100351.63;6199772;23;20084;-86
2023/10/17 08:52:28;;;;;;;3.97;2.00;;;;;;;16.04;43.12;100334.19;6211800;23;20008;-87
2023/10/17 08:54:56;;;;;;;4.65;2.13;;;;;;;15.90;43.09;100358.50;6211656;23;20408;-83
2023/10/17 08:57:22;;;;;;;4.75;2.45;;;;;;;16.09;42.89;100332.25;6187090;23;20802;-83
2023/10/17 09:02:20;;;;;;;9.23;2.78;;;;;;;16.01;42.61;100345.78;6213800;23;20071;-87
2023/10/17 09:04:46;;;;;;;4.53;1.60;;;;;;;15.82;43.34;100328.56;6214026;23;20015;-92
2023/10/17 09:07:22;;;;;;;3.35;1.80;;;;;;;16.12;43.13;100324.19;6187642;23;20013;-87
2023/10/17 09:09:54;;;;;;;5.40;1.60;;;;;;;15.86;42.53;100261.91;6186938;23;20397;-82
2023/10/17 09:12:26;;;;;;;6.40;1.77;;;;;;;15.46;42.67;100270.97;6212543;23;20005;-83
2023/10/17 09:14:52;;;;;;;5.38;2.60;;;;;;;15.85;42.79;100301.88;6198815;23;20008;-83
2023/10/17 09:17:28;;;;;;;5.30;2.40;;;;;;;16.05;42.64;100283.59;6211954;23;20071;-82
2023/10/17 09:19:56;;;;;;;2.88;1.85;;;;;;;16.10;41.85;100292.31;6200748;23;20270;-81
2023/10/17 09:22:22;;;;;;;7.32;1.65;;;;;;;16.38;41.73;100334.09;6210842;23;20510;-82
2023/10/17 09:24:49;;;;;;;4.22;1.80;;;;;;;16.37;41.33;100286.22;6212446;23;20039;-81
2023/10/17 09:27:17;;;;;;;3.25;1.40;;;;;;;16.40;41.11;100246.19;6213062;23;20055;-83
2023/10/17 09:29:58;;;;;;;8.30;2.28;;;;;;;16.25;40.84;100218.25;6185333;23;20043;-82
2023/10/17 09:32:42;;;;;;;3.03;1.60;;;;;;;16.45;41.56;100247.81;6212649;23;20008;-84
2023/10/17 09:35:16;;;;;;;2.83;1.27;;;;;;;17.11;41.30;100300.81;6203054;23;20313;-81
2023/10/17 09:37:50;;;;;;;2.40;1.48;;;;;;;16.45;40.88;100222.97;6212366;23;20011;-82
2023/10/17 09:40:38;;;;;;;2.42;1.38;;;;;;;16.81;40.80;100242.25;6212818;23;20005;-83
2023/10/17 09:43:03;;;;;;;3.53;1.67;;;;;;;17.28;40.48;100272.75;6210769;23;20079;-84
2023/10/17 09:45:35;;;;;;;6.15;1.75;;;;;;;16.95;40.38;100227.66;6212136;23;20011;-82
2023/10/17 09:48:06;;;;;;;6.82;2.38;;;;;;;16.38;40.53;100208.97;6211733;23;20000;-81
2023/10/17 09:50:37;;;;;;;3.70;2.45;;;;;;;16.33;41.19;100208.25;6211444;23;20114;-84
2023/10/17 09:53:16;;;;;;;4.47;2.60;;;;;;;16.55;40.87;100216.44;6210995;23;20001;-84
2023/10/17 09:55:50;;;;;;;3.20;1.92;;;;;;;16.93;40.49;100235.69;6212053;23;20000;-83
2023/10/17 09:58:21;;;;;;;3.40;1.63;;;;;;;16.82;40.04;100197.81;6212409;23;20011;-89
2023/10/17 10:00:56;;;;;;;5.43;2.83;;;;;;;17.09;39.35;100171.22;6209249;23;20047;-89
2023/10/17 10:03:28;;;;;;;4.07;2.08;;;;;;;17.09;39.69;100204.06;6212671;23;20393;-87
2023/10/17 10:05:54;;;;;;;2.97;2.22;;;;;;;17.05;39.34;100170.44;6199724;23;20082;-81
2023/10/17 10:08:34;;;;;;;3.53;2.17;;;;;;;17.83;39.63;100235.28;6211953;23;20016;-81
2023/10/17 10:11:05;;;;;;;5.15;2.20;;;;;;;17.56;39.88;100189.97;6198031;23;20004;-82
2023/10/17 10:14:03;;;;;;;5.05;3.60;;;;;;;17.84;39.07;100181.88;6209285;23;20004;-80
2023/10/17 10:17:04;;;;;;;7.18;3.40;;;;;;;18.12;38.73;100226.25;6210681;23;20005;-80
2023/10/17 10:19:41;;;;;;;6.75;1.67;;;;;;;18.13;37.97;100214.59;6095399;23;20373;-81
2023/10/17 10:22:14;;;;;;;2.42;1.65;;;;;;;17.49;38.81;100135.16;6119593;23;20009;-86
2023/10/17 10:24:42;;;;;;;6.82;1.75;;;;;;;17.85;38.53;100175.56;6117641;23;20010;-81
2023/10/17 10:27:10;;;;;;;4.10;1.83;;;;;;;18.02;38.60;100195.47;6119843;23;20021;-82
2023/10/17 10:29:36;;;;;;;3.10;1.50;;;;;;;17.95;38.46;100168.16;6118424;23;20016;-82
2023/10/17 10:32:08;;;;;;;4.32;1.70;;;;;;;17.95;38.49;100162.81;6119630;23;20010;-82
2023/10/17 10:34:37;;;;;;;10.52;1.88;;;;;;;18.20;37.99;100191.22;6118769;23;20402;-85
2023/10/17 10:37:03;;;;;;;2.78;1.60;;;;;;;18.34;38.25;100185.34;6120074;23;20085;-83
2023/10/17 10:39:32;;;;;;;2.88;1.90;;;;;;;18.04;38.17;100177.59;6119895;23;20068;-83
2023/10/17 10:42:02;;;;;;;3.65;1.73;;;;;;;17.92;38.11;100165.59;6119427;23;20014;-82
2023/10/17 10:44:28;;;;;;;2.42;1.90;;;;;;;18.10;38.24;100128.44;6120377;23;20357;-82
2023/10/17 10:46:54;;;;;;;4.97;2.33;;;;;;;18.31;38.13;100127.59;6120705;23;20452;-83
2023/10/17 10:49:30;;;;;;;8.10;3.63;;;;;;;18.23;39.06;100145.72;6120347;23;20010;-84
2023/10/17 10:51:58;;;;;;;7.65;2.58;;;;;;;18.34;38.38;100153.31;6120846;23;20010;-84
2023/10/17 10:54:50;;;;;;;9.23;2.45;;;;;;;18.14;38.84;100117.56;6201736;23;20451;-84
2023/10/17 10:57:26;;;;;;;8.05;2.85;;;;;;;18.06;38.41;100095.66;6205467;23;20450;-84
2023/10/17 10:59:52;;;;;;;7.15;2.35;;;;;;;18.45;38.36;100128.84;6200151;23;20012;-82
2023/10/17 11:02:20;;;;;;;2.53;1.52;;;;;;;18.35;39.10;100126.53;6212796;23;20001;-83
2023/10/17 11:04:47;;;;;;;4.20;2.80;;;;;;;18.29;39.45;100145.47;6211851;23;20008;-85
2023/10/17 11:07:23;;;;;;;6.28;2.20;;;;;;;18.60;38.14;100125.53;6212849;23;20005;-86
2023/10/17 11:10:18;;;;;;;4.72;2.22;;;;;;;18.68;38.61;100112.72;6212383;23;20036;-89
2023/10/17 11:12:53;;;;;;;3.75;2.17;;;;;;;18.63;38.64;100111.16;6212057;23;20000;-88
2023/10/17 11:15:22;;;;;;;10.05;2.85;;;;;;;18.70;38.48;100123.34;6211537;23;20344;-86
2023/10/17 11:17:47;;;;;;;6.47;2.15;;;;;;;18.98;37.42;100131.09;6211428;23;20105;-85
2023/10/17 11:20:14;;;;;;;2.92;1.90;;;;;;;18.87;37.64;100128.88;6212354;23;20444;-82
2023/10/17 11:22:41;;;;;;;3.53;1.77;;;;;;;18.29;38.07;100131.25;6212123;23;20009;-83
2023/10/17 11:25:27;;;;;;;6.00;2.13;;;;;;;18.43;38.13;100135.09;6211023;23;20009;-81
2023/10/17 11:27:56;;;;;;;1.95;1.35;;;;;;;18.60;37.06;100075.66;6211457;23;20001;-84
2023/10/17 11:30:32;;;;;;;4.20;2.33;;;;;;;18.74;37.09;100084.88;6184703;23;20016;-84
2023/10/17 11:33:05;;;;;;;6.85;1.35;;;;;;;18.33;37.49;100085.66;6211369;23;20001;-84
2023/10/17 11:35:37;;;;;;;5.07;1.88;;;;;;;18.48;38.12;100080.63;6211602;23;20024;-85
2023/10/17 11:38:03;;;;;;;4.13;1.98;;;;;;;18.64;37.68;100067.50;6210739;23;20423;-84
2023/10/17 11:40:38;;;;;;;7.88;1.85;;;;;;;19.07;37.53;100050.50;6211602;23;20071;-85
2023/10/17 11:43:21;;;;;;;3.63;1.65;;;;;;;19.39;37.06;100095.47;6211607;23;20004;-86
2023/10/17 11:45:47;;;;;;;4.47;1.65;;;;;;;19.00;36.90;100080.22;6185444;23;20165;-86
2023/10/17 11:48:36;;;;;;;3.50;1.73;;;;;;;18.76;37.82;100048.28;6212220;23;20341;-84
2023/10/17 11:51:12;;;;;;;3.22;1.48;;;;;;;19.11;37.68;100096.69;6202419;23;20000;-84
2023/10/17 11:54:04;;;;;;;3.75;1.63;;;;;;;19.01;37.30;100093.53;6212019;23;20004;-84
2023/10/17 11:56:31;;;;;;;3.70;1.80;;;;;;;19.10;37.72;100074.41;6212042;23;20276;-85
2023/10/17 11:58:57;;;;;;;4.32;1.35;;;;;;;18.99;36.80;100057.13;6212566;23;20007;-85
2023/10/17 12:01:23;;;;;;;2.45;1.25;;;;;;;18.61;37.47;100045.34;6211370;23;20419;-85
2023/10/17 12:03:53;;;;;;;4.40;1.65;;;;;;;18.90;37.63;100082.44;6212353;23;20004;-84
2023/10/17 12:06:21;;;;;;;3.25;1.15;;;;;;;18.29;37.64;100024.44;6211778;23;20015;-86
2023/10/17 12:08:47;;;;;;;8.43;1.77;;;;;;;18.24;38.00;100014.84;6211388;23;20448;-84
2023/10/17 12:11:12;;;;;;;2.85;1.00;;;;;;;18.63;39.25;100034.56;6212690;23;20007;-84
2023/10/17 12:13:38;;;;;;;3.17;1.30;;;;;;;18.74;38.62;100050.16;6211458;23;20004;-84
2023/10/17 12:16:08;;;;;;;2.97;1.15;;;;;;;18.69;37.80;100004.03;6211756;23;20490;-84
2023/10/17 12:18:37;;;;;;;4.82;1.30;;;;;;;19.27;37.44;100043.38;6211186;23;20083;-84
2023/10/17 12:21:04;;;;;;;4.15;1.42;;;;;;;19.13;36.77;100009.25;6211807;23;20011;-85
2023/10/17 12:23:30;;;;;;;1.33;0.95;;;;;;;19.08;35.98;99947.97;6211997;23;20005;-86
2023/10/17 12:26:01;;;;;;;3.20;1.70;;;;;;;19.20;35.69;99951.00;6211970;23;20325;-86
2023/10/17 12:28:27;;;;;;;4.35;1.63;;;;;;;19.52;35.65;99994.97;6211598;23;20005;-84
2023/10/17 12:31:40;;;;;;;2.97;1.27;;;;;;;19.36;36.63;99969.88;6213389;23;20333;-90
2023/10/17 12:37:22;;;;;;;3.38;1.25;;;;;;;19.33;37.21;100005.66;6208093;23;20026;-92
2023/10/17 12:39:49;;;;;;;3.25;1.55;;;;;;;19.00;37.26;99995.59;6213727;23;20096;-94
2023/10/17 12:42:15;;;;;;;2.85;1.40;;;;;;;18.83;37.32;99974.91;6187667;23;20012;-88
2023/10/17 12:44:42;;;;;;;1.13;0.82;;;;;;;18.85;37.51;99964.19;6187463;23;20015;-87
2023/10/17 12:47:11;;;;;;;2.70;1.13;;;;;;;19.03;37.28;99975.84;6213903;23;20028;-89
2023/10/17 12:49:39;;;;;;;3.22;1.10;;;;;;;19.18;37.67;99984.97;6214624;23;20043;-88
2023/10/17 12:52:05;;;;;;;3.33;1.58;;;;;;;19.24;37.87;99976.66;6214062;23;20017;-86
2023/10/17 12:54:30;;;;;;;1.88;1.42;;;;;;;18.80;36.83;99943.00;6211317;23;20087;-83
2023/10/17 12:57:52;;;;;;;2.22;1.00;;;;;;;18.67;37.77;99953.34;6213822;23;20008;-92
2023/10/17 13:04:12;;;;;;;6.10;0.95;;;;;;;19.23;37.80;100021.28;6066621;23;20435;-94
2023/10/17 13:06:38;;;;;;;2.20;1.20;;;;;;;18.27;37.66;99932.84;6038430;23;20026;-90
2023/10/17 13:09:06;;;;;;;1.55;1.00;;;;;;;18.39;37.66;99962.56;6038001;23;20042;-87
2023/10/17 13:11:32;;;;;;;2.85;1.25;;;;;;;18.20;37.41;99932.25;6062137;23;20386;-88
2023/10/17 13:14:05;;;;;;;2.88;1.50;;;;;;;18.20;38.15;99980.31;6062292;23;20421;-89
2023/10/17 13:20:46;;;;;;;5.50;1.90;;;;;;;18.25;38.81;99957.81;6062884;23;20062;-93
2023/10/17 13:23:38;;;;;;;3.33;1.35;;;;;;;18.56;38.84;99991.22;5981313;23;20416;-91
2023/10/17 13:26:22;;;;;;;1.83;1.00;;;;;;;18.52;37.97;99951.34;6005194;23;20012;-93
2023/10/17 13:28:58;;;;;;;6.93;1.30;;;;;;;18.36;37.83;99933.31;5985034;23;20020;-93
2023/10/17 13:31:55;;;;;;;0.98;0.60;;;;;;;18.33;37.55;99940.59;6006699;23;20008;-95
2023/10/17 13:34:34;;;;;;;9.30;1.73;;;;;;;18.70;37.79;100009.31;6005211;23;20022;-90
2023/10/17 13:37:29;;;;;;;3.28;1.25;;;;;;;17.87;38.13;99938.03;6026948;23;20015;-91
2023/10/17 13:40:01;;;;;;;5.13;1.58;;;;;;;18.43;38.85;100022.06;6078538;23;20104;-89
2023/10/17 13:42:27;;;;;;;4.15;1.95;;;;;;;18.06;38.92;99954.19;6120059;23;20017;-89
2023/10/17 13:44:54;;;;;;;4.97;1.90;;;;;;;17.92;38.71;99943.22;6118183;23;20006;-90
2023/10/17 13:47:20;;;;;;;2.45;0.95;;;;;;;18.05;38.83;99968.47;6119989;23;20037;-90
2023/10/17 13:49:54;;;;;;;3.58;1.52;;;;;;;18.06;38.81;99994.25;6119545;23;20010;-89
2023/10/17 13:52:32;;;;;;;12.50;1.63;;;;;;;17.88;38.74;99975.34;6094774;23;20102;-91
2023/10/17 13:55:09;;;;;;;4.43;1.88;;;;;;;17.98;38.66;99981.22;6119895;23;20457;-90
2023/10/17 13:57:38;;;;;;;4.05;1.83;;;;;;;17.78;39.20;99968.66;6120516;23;20017;-86
2023/10/17 14:00:19;;;;;;;3.42;1.10;;;;;;;17.85;38.87;99969.25;6150318;23;20012;-89
2023/10/17 14:02:49;;;;;;;3.15;1.35;;;;;;;17.61;38.81;99941.75;6156410;23;20104;-86
2023/10/17 14:05:16;;;;;;;10.68;1.20;;;;;;;17.76;38.93;99956.28;6180450;23;20012;-87
2023/10/17 14:07:43;;;;;;;2.45;1.58;;;;;;;17.73;39.16;99959.94;6181328;23;20463;-86
2023/10/17 14:10:12;;;;;;;16.67;1.40;;;;;;;17.68;39.18;99973.47;6179829;23;20008;-85
2023/10/17 14:12:40;;;;;;;14.65;1.40;;;;;;;18.10;39.07;99986.97;6155524;23;20013;-85
2023/10/17 14:15:09;;;;;;;16.52;2.28;;;;;;;17.67;39.34;99942.41;6183450;23;20352;-85
2023/10/17 14:17:36;;;;;;;2.17;0.95;;;;;;;17.34;39.59;99925.94;6182289;23;20009;-85
2023/10/17 14:20:06;;;;;;;2.13;0.85;;;;;;;17.17;39.83;99929.25;6183370;23;20008;-83
2023/10/17 14:22:44;;;;;;;2.08;1.25;;;;;;;17.37;40.38;99963.13;6182891;23;20425;-84
2023/10/17 14:25:10;;;;;;;3.10;0.95;;;;;;;17.30;39.57;99927.84;6182966;23;20009;-84